createdAt,value
2023-01-20T00:04:11.429Z,90.13
2023-01-20T00:09:17.447Z,90.16
2023-01-20T00:14:19.059Z,89.48
2023-01-20T00:19:23.228Z,89.02
2023-01-20T00:24:25.141Z,89.43
2023-01-20T00:29:26.894Z,89.62
2023-01-20T00:34:28.640Z,89.98
2023-01-20T00:39:30.322Z,90.52
2023-01-20T00:44:32.175Z,90.67
2023-01-20T00:49:33.836Z,92.23
2023-01-20T00:54:35.678Z,91.99
2023-01-20T00:59:37.560Z,91.92
2023-01-20T01:04:39.203Z,91.68
2023-01-20T01:09:40.873Z,90.63
2023-01-20T01:14:42.498Z,91.23
2023-01-20T01:19:44.107Z,92.41
2023-01-20T01:24:45.710Z,91.26
2023-01-20T01:29:47.371Z,91.87
2023-01-20T01:34:48.992Z,91.41
2023-01-20T01:39:50.716Z,91.82
2023-01-20T01:45:10.803Z,93.61
2023-01-20T01:50:20.509Z,94.40
2023-01-20T01:55:27.477Z,94.16
2023-01-20T02:00:29.675Z,94.04
2023-01-20T02:05:32.295Z,94.05
2023-01-20T02:10:34.067Z,93.82
2023-01-20T02:15:58.673Z,93.05
2023-01-20T02:21:37.579Z,93.27
2023-01-20T02:26:53.356Z,93.52
2023-01-20T02:32:19.213Z,93.38
2023-01-20T02:37:28.634Z,93.72
2023-01-20T02:42:48.851Z,93.30
2023-01-20T02:48:12.584Z,93.47
2023-01-20T02:53:16.867Z,93.66
2023-01-20T02:58:52.775Z,94.03
2023-01-20T03:03:58.426Z,94.56
2023-01-20T03:09:02.363Z,93.91
2023-01-20T03:14:13.734Z,93.92
2023-01-20T03:19:20.205Z,94.12
2023-01-20T03:24:23.205Z,94.21
2023-01-20T03:29:24.920Z,95.02
2023-01-20T03:34:30.039Z,94.76
2023-01-20T03:39:32.711Z,95.08
2023-01-20T03:45:09.441Z,95.21
2023-01-20T03:50:47.907Z,95.43
2023-01-20T03:56:02.560Z,95.83
2023-01-20T04:01:18.439Z,95.55
2023-01-20T04:06:24.958Z,95.38
2023-01-20T04:11:27.909Z,96.12
2023-01-20T04:16:29.772Z,95.59
2023-01-20T04:21:39.332Z,94.99
2023-01-20T04:26:41.157Z,94.80
2023-01-20T04:31:42.869Z,94.53
2023-01-20T04:36:44.717Z,94.07
2023-01-20T04:41:47.441Z,94.34
2023-01-20T04:46:49.289Z,93.98
2023-01-20T04:51:50.905Z,93.44
2023-01-20T04:56:52.491Z,92.82
2023-01-20T05:01:54.477Z,92.82
2023-01-20T05:06:56.399Z,92.55
2023-01-20T05:11:58.067Z,91.92
2023-01-20T05:16:59.811Z,91.64
2023-01-20T05:22:02.367Z,91.54
2023-01-20T05:27:04.092Z,91.88
2023-01-20T05:32:05.722Z,91.70
2023-01-20T05:37:07.385Z,91.26
2023-01-20T05:42:09.037Z,91.06
2023-01-20T05:47:10.691Z,91.11
2023-01-20T05:52:12.387Z,91.04
2023-01-20T05:57:18.162Z,91.00
2023-01-20T06:02:20.320Z,90.92
2023-01-20T06:07:22.018Z,90.68
2023-01-20T06:12:23.897Z,90.19
2023-01-20T06:17:25.640Z,89.98
2023-01-20T06:22:27.660Z,89.65
2023-01-20T06:27:29.257Z,89.62
2023-01-20T06:32:30.856Z,89.32
2023-01-20T06:37:32.674Z,89.17
2023-01-20T06:42:34.304Z,89.37
2023-01-20T06:47:36.250Z,89.23
2023-01-20T06:52:37.845Z,89.33
2023-01-20T06:57:39.431Z,89.32
2023-01-20T07:02:41.313Z,88.95
2023-01-20T07:07:46.037Z,88.75
2023-01-20T07:12:47.677Z,88.61
2023-01-20T07:17:49.288Z,88.59
2023-01-20T07:22:50.917Z,87.95
2023-01-20T07:27:53.171Z,87.86
2023-01-20T07:32:54.768Z,87.52
2023-01-20T07:37:56.619Z,87.71
2023-01-20T07:42:58.242Z,87.17
2023-01-20T07:48:00.140Z,86.97
2023-01-20T07:53:02.019Z,87.04
2023-01-20T07:58:03.640Z,86.79
2023-01-20T08:03:05.297Z,86.40
2023-01-20T08:08:07.203Z,86.33
2023-01-20T08:13:09.217Z,86.71
2023-01-20T08:18:11.067Z,86.10
2023-01-20T08:23:13.014Z,85.97
2023-01-20T08:28:14.728Z,85.90
2023-01-20T08:33:16.322Z,85.21
2023-01-20T08:38:18.167Z,84.76
2023-01-20T08:43:19.783Z,84.92
2023-01-20T08:48:21.510Z,84.21
2023-01-20T08:53:23.137Z,84.28
2023-01-20T08:58:25.588Z,84.08
2023-01-20T09:03:27.519Z,83.70
2023-01-20T09:08:29.655Z,84.04
2023-01-20T09:13:31.425Z,84.10
2023-01-20T09:18:34.578Z,83.96
2023-01-20T09:23:39.075Z,83.63
2023-01-20T09:28:44.525Z,83.35
2023-01-20T09:33:46.127Z,83.47
2023-01-20T09:39:06.280Z,83.36
2023-01-20T09:44:42.413Z,82.84
2023-01-20T09:50:09.885Z,82.51
2023-01-20T09:55:21.566Z,82.64
2023-01-20T10:00:26.187Z,82.78
2023-01-20T10:05:35.652Z,82.68
2023-01-20T10:10:44.146Z,82.40
2023-01-20T10:15:54.216Z,82.30
2023-01-20T10:20:58.720Z,82.15
2023-01-20T10:26:17.095Z,82.40
2023-01-20T10:31:27.843Z,82.72
2023-01-20T10:36:30.950Z,81.92
2023-01-20T10:41:45.638Z,81.88
2023-01-20T10:47:13.629Z,81.49
2023-01-20T10:52:46.661Z,81.26
2023-01-20T10:57:54.678Z,79.78
2023-01-20T11:03:00.058Z,79.27
2023-01-20T11:08:03.624Z,78.49
2023-01-20T11:13:05.529Z,77.81
2023-01-20T11:18:16.584Z,76.23
2023-01-20T11:23:42.088Z,76.02
2023-01-20T11:28:50.746Z,75.88
2023-01-20T11:33:56.684Z,76.12
2023-01-20T11:38:58.355Z,75.02
2023-01-20T11:44:00.870Z,74.55
2023-01-20T11:49:22.033Z,74.02
2023-01-20T11:54:26.202Z,74.48
2023-01-20T11:59:30.353Z,74.70
2023-01-20T12:04:50.807Z,75.11
2023-01-20T12:09:59.362Z,75.79
2023-01-20T12:15:10.718Z,75.40
2023-01-20T12:20:24.221Z,76.05
2023-01-20T12:25:30.605Z,74.89
2023-01-20T12:30:41.309Z,75.04
2023-01-20T12:36:00.958Z,74.06
2023-01-20T12:41:13.629Z,74.42
2023-01-20T12:46:18.170Z,74.18
2023-01-20T12:52:05.654Z,75.14
2023-01-20T12:57:19.589Z,75.44
2023-01-20T13:02:24.145Z,76.19
2023-01-20T13:07:48.344Z,76.28
2023-01-20T13:13:03.953Z,76.86
2023-01-20T13:18:17.835Z,76.30
2023-01-20T13:23:36.903Z,76.37
2023-01-20T13:28:38.451Z,76.97
2023-01-20T13:33:41.819Z,76.56
2023-01-20T13:38:44.548Z,76.99
2023-01-20T13:43:48.283Z,76.48
2023-01-20T13:49:20.966Z,76.42
2023-01-20T13:54:25.450Z,76.41
2023-01-20T13:59:27.246Z,75.93
2023-01-20T14:04:28.891Z,76.10
2023-01-20T14:09:30.493Z,76.25
2023-01-20T14:14:32.300Z,76.48
2023-01-20T14:19:37.262Z,76.85
2023-01-20T14:24:47.878Z,77.30
2023-01-20T14:29:52.277Z,77.18
2023-01-20T14:34:54.878Z,77.57
2023-01-20T14:39:59.458Z,78.36
2023-01-20T14:45:01.157Z,78.36
2023-01-20T14:50:03.029Z,78.83
2023-01-20T14:55:05.110Z,78.60
2023-01-20T15:00:19.258Z,78.57
2023-01-20T15:05:31.854Z,77.96
2023-01-20T15:10:33.722Z,78.26
2023-01-20T15:15:35.414Z,78.86
2023-01-20T15:20:43.987Z,78.86
2023-01-20T15:25:46.132Z,79.17
2023-01-20T15:30:47.823Z,79.68
2023-01-20T15:36:00.649Z,79.48
2023-01-20T15:41:02.305Z,79.58
2023-01-20T15:46:10.821Z,80.13
2023-01-20T15:51:15.141Z,80.34
2023-01-20T15:56:25.198Z,80.25
2023-01-20T16:01:29.037Z,79.64
2023-01-20T16:06:33.263Z,79.76
2023-01-20T16:11:35.119Z,79.51
2023-01-20T16:16:37.008Z,79.23
2023-01-20T16:21:38.808Z,78.32
2023-01-20T16:26:42.947Z,78.33
2023-01-20T16:31:44.682Z,77.60
2023-01-20T16:36:46.313Z,77.33
2023-01-20T16:41:49.855Z,77.05
2023-01-20T16:46:51.506Z,77.08
2023-01-20T16:51:53.123Z,76.80
2023-01-20T16:56:54.713Z,77.18
2023-01-20T17:01:56.411Z,77.04
2023-01-20T17:06:58.051Z,77.42
2023-01-20T17:11:59.692Z,77.21
2023-01-20T17:17:01.353Z,77.27
2023-01-20T17:22:03.036Z,77.59
2023-01-20T17:27:04.698Z,77.71
2023-01-20T17:32:06.626Z,78.45
2023-01-20T17:37:08.252Z,78.53
2023-01-20T17:42:09.853Z,78.64
2023-01-20T17:47:12.183Z,78.86
2023-01-20T17:52:13.851Z,79.15
2023-01-20T17:57:15.507Z,79.43
2023-01-20T18:02:18.735Z,78.89
2023-01-20T18:07:20.427Z,78.75
2023-01-20T18:12:22.228Z,78.81
2023-01-20T18:17:24.061Z,78.49
2023-01-20T18:22:25.790Z,78.27
2023-01-20T18:27:27.590Z,78.50
2023-01-20T18:32:29.451Z,79.32
2023-01-20T18:37:32.466Z,79.22
2023-01-20T18:42:34.079Z,77.77
2023-01-20T18:47:35.881Z,77.71
2023-01-20T18:52:37.783Z,77.43
2023-01-20T18:57:39.600Z,78.16
2023-01-20T19:02:41.341Z,78.34
2023-01-20T19:07:48.521Z,78.68
2023-01-20T19:12:51.799Z,78.56
2023-01-20T19:17:53.478Z,79.20
2023-01-20T19:22:55.106Z,78.96
2023-01-20T19:27:56.879Z,79.29
2023-01-20T19:32:58.487Z,79.25
2023-01-20T19:38:00.211Z,79.78
2023-01-20T19:43:01.865Z,79.88
2023-01-20T19:48:03.947Z,79.73
2023-01-20T19:53:05.564Z,79.61
2023-01-20T19:58:07.160Z,79.81
2023-01-20T20:03:08.976Z,80.00
2023-01-20T20:08:10.580Z,79.83
2023-01-20T20:13:12.213Z,80.38
2023-01-20T20:18:13.896Z,79.65
2023-01-20T20:23:17.881Z,80.59
2023-01-20T20:28:19.788Z,80.45
2023-01-20T20:33:23.170Z,80.82
2023-01-20T20:38:25.030Z,80.76
2023-01-20T20:43:28.019Z,81.59
2023-01-20T20:48:30.372Z,81.86
2023-01-20T20:53:32.179Z,82.16
2023-01-20T20:58:34.475Z,83.40
2023-01-20T21:03:36.092Z,83.49
2023-01-20T21:08:39.125Z,84.06
2023-01-20T21:13:42.909Z,84.92
2023-01-20T21:18:44.523Z,85.53
2023-01-20T21:23:52.060Z,86.01
2023-01-20T21:28:54.061Z,86.99
2023-01-20T21:33:59.440Z,87.95
2023-01-20T21:39:01.164Z,89.68
2023-01-20T21:44:21.330Z,89.63
2023-01-20T21:49:41.782Z,89.40
2023-01-20T21:54:45.128Z,90.87
2023-01-20T21:59:47.160Z,91.79
2023-01-20T22:04:48.838Z,93.31
2023-01-20T22:09:50.655Z,95.15
2023-01-20T22:14:52.477Z,95.18
2023-01-20T22:19:54.486Z,96.33
2023-01-20T22:24:56.383Z,97.03
2023-01-20T22:29:58.183Z,96.46
2023-01-20T22:34:59.808Z,97.40
2023-01-20T22:40:02.113Z,97.63
2023-01-20T22:45:04.199Z,98.05
2023-01-20T22:50:07.869Z,98.66
2023-01-20T22:55:09.664Z,99.19
2023-01-20T23:00:12.193Z,99.23
2023-01-20T23:05:14.062Z,99.62
2023-01-20T23:10:35.764Z,99.14
2023-01-20T23:15:37.571Z,99.42
2023-01-20T23:20:39.576Z,99.29
2023-01-20T23:25:41.453Z,100.00
2023-01-20T23:30:43.592Z,100.00
2023-01-20T23:35:45.228Z,100.00
2023-01-20T23:40:50.113Z,100.00
2023-01-20T23:45:51.875Z,100.00
2023-01-20T23:50:54.765Z,100.00
2023-01-20T23:56:01.330Z,100.00
